Time;durP1;ratioP1;P1;durP2;ratioP2;P2;SDS_P1;SDS_P2;PMS_P1;PMS_P2;Temp;Humidity;BMP_temperature;BMP_pressure;BME280_temperature;BME280_humidity;BME280_pressure;Samples;Min_cycle;Max_cycle;Signal;HPM_P1;HPM_P2
2021/05/23 00:01:02;;;;;;;1.60;1.27;;;11.30;99.90;;;;;;5019345;28;20194;-69
2021/05/23 00:03:30;;;;;;;2.90;2.17;;;11.10;99.90;;;;;;5018635;28;20454;-70
2021/05/23 00:05:58;;;;;;;1.73;1.10;;;11.10;99.90;;;;;;5020055;28;20496;-69
2021/05/23 00:08:26;;;;;;;1.43;1.17;;;11.00;99.90;;;;;;5018808;28;20417;-69
2021/05/23 00:10:57;;;;;;;2.07;1.10;;;10.90;99.90;;;;;;5016633;28;20457;-70
2021/05/23 00:13:29;;;;;;;2.10;1.20;;;10.80;99.90;;;;;;5016169;28;20448;-71
2021/05/23 00:15:59;;;;;;;2.28;1.95;;;10.70;99.90;;;;;;5013401;28;20420;-69
2021/05/23 00:18:29;;;;;;;1.63;1.48;;;10.60;99.90;;;;;;5013003;28;20182;-69
2021/05/23 00:20:56;;;;;;;1.10;1.00;;;10.60;99.90;;;;;;5012206;28;20205;-71
2021/05/23 00:23:25;;;;;;;1.38;1.27;;;10.60;99.90;;;;;;5012797;28;20276;-69
2021/05/23 00:25:53;;;;;;;4.22;1.55;;;10.50;99.90;;;;;;5012677;28;20621;-70
2021/05/23 00:28:22;;;;;;;1.30;0.93;;;10.50;99.90;;;;;;5012481;28;20732;-70
2021/05/23 00:30:49;;;;;;;2.55;1.42;;;10.50;99.90;;;;;;5012195;28;20194;-69
2021/05/23 00:33:17;;;;;;;3.08;1.80;;;10.50;99.90;;;;;;5012511;28;20206;-69
2021/05/23 00:35:45;;;;;;;2.17;1.35;;;10.50;99.90;;;;;;5012560;28;20178;-68
2021/05/23 00:38:13;;;;;;;1.88;1.70;;;10.50;99.90;;;;;;5012286;28;20634;-70
2021/05/23 00:40:41;;;;;;;2.53;1.70;;;10.50;99.90;;;;;;5012158;28;20170;-68
2021/05/23 00:43:10;;;;;;;1.77;1.48;;;10.50;99.90;;;;;;5012118;28;20209;-69
2021/05/23 00:45:39;;;;;;;3.22;2.75;;;10.50;99.90;;;;;;5012715;28;20182;-69
2021/05/23 00:48:07;;;;;;;2.50;2.10;;;10.40;99.90;;;;;;5012191;28;20182;-70
2021/05/23 00:50:36;;;;;;;2.10;1.60;;;10.40;99.90;;;;;;5011955;28;20194;-70
2021/05/23 00:53:07;;;;;;;2.28;1.98;;;10.30;99.90;;;;;;5011843;28;20210;-69
2021/05/23 00:55:35;;;;;;;3.33;2.80;;;10.30;99.90;;;;;;5012166;28;20175;-70
2021/05/23 00:58:03;;;;;;;1.85;1.40;;;10.30;99.90;;;;;;5011810;28;20200;-69
2021/05/23 01:01:22;;;;;;;1.70;1.60;;;10.20;99.90;;;;;;5011972;28;20600;-69
2021/05/23 01:03:56;;;;;;;1.73;1.60;;;10.20;99.90;;;;;;4932204;29;20246;-69
2021/05/23 01:06:25;;;;;;;2.13;1.55;;;10.20;99.90;;;;;;5009339;28;20279;-68
2021/05/23 01:08:53;;;;;;;2.50;2.30;;;10.10;99.90;;;;;;5011715;28;20178;-68
2021/05/23 01:12:09;;;;;;;3.53;2.70;;;10.10;99.90;;;;;;5012138;28;20198;-68
2021/05/23 01:14:58;;;;;;;4.55;2.15;;;10.00;99.90;;;;;;5010811;28;20194;-68
2021/05/23 01:17:44;;;;;;;2.47;2.28;;;10.00;99.90;;;;;;5012034;28;20522;-69
2021/05/23 01:20:41;;;;;;;3.25;2.30;;;10.00;99.90;;;;;;4994370;28;20193;-69
2021/05/23 01:23:21;;;;;;;2.50;2.03;;;9.90;99.90;;;;;;5011654;28;20210;-69
2021/05/23 01:25:55;;;;;;;2.65;2.25;;;9.90;99.90;;;;;;5011714;28;20724;-68
2021/05/23 01:28:23;;;;;;;2.47;2.28;;;9.80;99.90;;;;;;5011696;28;20186;-68
2021/05/23 01:30:52;;;;;;;3.28;2.40;;;9.80;99.90;;;;;;5012419;28;20190;-68
2021/05/23 01:33:21;;;;;;;3.47;3.03;;;9.80;99.90;;;;;;5017895;28;20208;-69
2021/05/23 01:35:57;;;;;;;2.65;2.20;;;9.70;99.90;;;;;;5017801;28;20201;-70
2021/05/23 01:38:27;;;;;;;3.35;2.10;;;9.60;99.90;;;;;;5017781;28;20193;-69
2021/05/23 01:41:00;;;;;;;3.25;2.20;;;9.60;99.90;;;;;;5018018;28;20178;-71
2021/05/23 01:43:29;;;;;;;2.05;1.85;;;9.60;99.90;;;;;;5017670;28;20245;-71
2021/05/23 01:45:58;;;;;;;2.50;2.30;;;9.60;99.90;;;;;;5017733;28;20359;-69
2021/05/23 01:48:26;;;;;;;3.65;2.95;;;9.60;99.90;;;;;;5018447;28;20194;-70
2021/05/23 01:50:54;;;;;;;3.15;2.30;;;9.60;99.90;;;;;;5017999;28;20222;-70
2021/05/23 01:53:22;;;;;;;4.82;2.67;;;9.60;99.90;;;;;;5018391;28;20580;-69
2021/05/23 01:55:49;;;;;;;3.33;2.90;;;9.70;99.90;;;;;;5019194;28;20182;-69
2021/05/23 01:58:18;;;;;;;2.72;1.92;;;9.90;99.90;;;;;;5018812;28;20206;-69
2021/05/23 02:00:48;;;;;;;4.57;2.88;;;9.90;99.90;;;;;;5001255;28;20289;-69
2021/05/23 02:03:19;;;;;;;3.13;2.67;;;9.90;99.90;;;;;;5001331;28;20345;-69
2021/05/23 02:05:48;;;;;;;2.15;1.92;;;9.90;99.90;;;;;;5017868;28;20791;-70
2021/05/23 02:08:18;;;;;;;4.15;2.40;;;10.00;99.90;;;;;;5017533;28;20198;-69
2021/05/23 02:10:46;;;;;;;3.08;2.67;;;10.10;99.90;;;;;;5017345;28;20214;-69
2021/05/23 02:13:15;;;;;;;2.65;2.25;;;10.10;99.90;;;;;;5017426;28;20210;-70
2021/05/23 02:15:44;;;;;;;2.75;2.35;;;10.10;99.90;;;;;;5017367;28;20178;-69
2021/05/23 02:18:12;;;;;;;3.10;2.00;;;10.10;99.90;;;;;;5000000;28;20636;-69
2021/05/23 02:20:40;;;;;;;3.00;2.70;;;10.10;99.90;;;;;;5017314;28;20265;-69
2021/05/23 02:23:13;;;;;;;2.80;2.42;;;10.10;99.90;;;;;;5017177;28;20551;-70
2021/05/23 02:25:42;;;;;;;3.10;2.60;;;9.90;99.90;;;;;;5017347;28;20202;-70
2021/05/23 02:28:12;;;;;;;4.57;1.80;;;9.80;99.90;;;;;;5017368;28;20672;-68
2021/05/23 02:30:41;;;;;;;2.30;2.10;;;9.70;99.90;;;;;;5030761;23;20234;-65
2021/05/23 02:33:12;;;;;;;2.35;2.15;;;9.60;99.90;;;;;;5016956;28;20224;-66
2021/05/23 02:35:42;;;;;;;2.85;2.53;;;9.60;99.90;;;;;;5017339;28;20705;-67
2021/05/23 02:38:11;;;;;;;3.33;2.20;;;9.40;99.90;;;;;;5017444;28;20175;-67
2021/05/23 02:40:39;;;;;;;2.10;1.90;;;9.40;99.90;;;;;;5017521;28;20186;-66
2021/05/23 02:43:09;;;;;;;2.55;1.63;;;9.30;99.90;;;;;;4997708;28;20228;-66
2021/05/23 02:45:37;;;;;;;4.97;3.00;;;9.30;99.90;;;;;;5014344;28;20178;-66
2021/05/23 02:48:07;;;;;;;2.83;2.20;;;9.20;99.90;;;;;;4996711;28;20191;-67
2021/05/23 02:50:38;;;;;;;3.78;2.35;;;9.20;99.90;;;;;;4996450;28;20286;-67
2021/05/23 02:53:07;;;;;;;1.73;1.50;;;9.20;99.90;;;;;;5013960;28;20211;-66
2021/05/23 02:55:36;;;;;;;2.92;2.63;;;9.10;99.90;;;;;;5013751;28;20661;-67
2021/05/23 02:58:05;;;;;;;2.83;2.15;;;9.10;99.90;;;;;;5013824;28;20186;-66
2021/05/23 03:00:33;;;;;;;2.22;1.65;;;9.20;99.90;;;;;;4995990;28;20178;-66
2021/05/23 03:03:02;;;;;;;3.08;2.30;;;9.20;99.90;;;;;;5013533;28;20206;-67
2021/05/23 03:05:30;;;;;;;2.05;1.83;;;9.20;99.90;;;;;;5013975;28;20185;-67
2021/05/23 03:07:59;;;;;;;2.42;1.95;;;9.20;99.90;;;;;;4996702;28;20194;-67
2021/05/23 03:10:31;;;;;;;3.80;2.45;;;9.20;99.90;;;;;;5013924;28;20217;-67
2021/05/23 03:12:59;;;;;;;2.42;1.77;;;9.20;99.90;;;;;;5013710;28;20300;-67
2021/05/23 03:15:28;;;;;;;2.65;2.40;;;9.20;99.90;;;;;;5013733;28;20182;-67
2021/05/23 03:17:56;;;;;;;2.65;2.25;;;9.30;99.90;;;;;;4996545;28;20212;-67
2021/05/23 03:20:25;;;;;;;3.60;2.38;;;9.30;99.90;;;;;;5013446;28;20194;-68
2021/05/23 03:22:54;;;;;;;2.75;2.33;;;9.40;99.90;;;;;;5013221;28;20210;-67
2021/05/23 03:25:24;;;;;;;2.85;2.63;;;9.60;99.90;;;;;;5013252;28;20216;-67
2021/05/23 03:27:53;;;;;;;2.00;1.80;;;9.70;99.90;;;;;;5013313;28;20166;-67
2021/05/23 03:30:22;;;;;;;2.88;2.28;;;9.90;99.90;;;;;;5013118;28;20194;-67
2021/05/23 03:32:50;;;;;;;2.25;2.05;;;10.20;99.90;;;;;;5013004;28;20747;-66
2021/05/23 03:35:18;;;;;;;1.73;1.40;;;10.60;99.90;;;;;;5013163;28;20202;-66
2021/05/23 03:37:46;;;;;;;1.90;1.35;;;10.70;99.90;;;;;;5013181;28;20183;-67
2021/05/23 03:40:16;;;;;;;1.83;1.70;;;10.70;99.90;;;;;;5013576;28;20546;-66
2021/05/23 03:42:46;;;;;;;2.28;1.80;;;10.60;99.90;;;;;;4995523;28;20690;-66
2021/05/23 03:45:15;;;;;;;2.35;1.75;;;10.50;99.90;;;;;;5013337;28;20182;-66
2021/05/23 03:47:42;;;;;;;3.75;1.60;;;10.40;99.90;;;;;;5012964;28;20177;-66
2021/05/23 03:50:13;;;;;;;4.57;2.30;;;10.40;99.90;;;;;;5013043;28;20516;-66
2021/05/23 03:52:41;;;;;;;2.40;1.77;;;10.70;99.90;;;;;;5012710;28;20221;-66
2021/05/23 03:55:09;;;;;;;2.17;1.65;;;11.60;99.90;;;;;;5012069;28;20504;-66
2021/05/23 03:57:37;;;;;;;2.00;1.30;;;11.90;99.90;;;;;;5012705;28;20179;-66
2021/05/23 04:00:07;;;;;;;2.17;1.20;;;12.30;99.90;;;;;;5012643;28;20420;-66
2021/05/23 04:02:44;;;;;;;2.17;1.40;;;13.40;99.90;;;;;;5012270;28;20448;-67
2021/05/23 04:05:12;;;;;;;2.20;1.33;;;14.80;99.90;;;;;;4994866;28;20439;-67
2021/05/23 04:07:40;;;;;;;1.47;1.27;;;15.70;99.90;;;;;;5012500;28;20380;-67
2021/05/23 04:10:10;;;;;;;1.50;1.20;;;16.70;99.90;;;;;;4994722;28;20503;-66
2021/05/23 04:12:41;;;;;;;1.37;1.10;;;17.50;99.90;;;;;;5011998;28;20568;-66
2021/05/23 04:15:11;;;;;;;1.40;1.30;;;18.10;99.90;;;;;;5012292;28;20488;-66
2021/05/23 04:17:39;;;;;;;1.33;1.23;;;18.70;99.90;;;;;;5012409;28;20390;-66
2021/05/23 04:20:09;;;;;;;2.10;1.20;;;19.50;99.90;;;;;;5012507;28;20399;-66
2021/05/23 04:22:37;;;;;;;1.80;1.40;;;19.80;99.90;;;;;;5012274;28;20415;-66
2021/05/23 04:25:09;;;;;;;1.57;1.30;;;20.30;99.90;;;;;;5012088;28;20467;-66
2021/05/23 04:27:37;;;;;;;2.43;1.60;;;20.20;99.90;;;;;;5012113;28;20427;-66
2021/05/23 04:30:07;;;;;;;2.77;2.30;;;20.00;99.90;;;;;;5012034;28;20437;-67
2021/05/23 04:32:36;;;;;;;1.83;1.30;;;19.80;99.90;;;;;;5011804;28;20468;-68
2021/05/23 04:35:06;;;;;;;1.67;1.30;;;19.70;99.90;;;;;;5012039;28;20387;-67
2021/05/23 04:37:34;;;;;;;2.47;1.20;;;18.50;99.90;;;;;;5011950;28;20400;-66
2021/05/23 04:40:02;;;;;;;1.40;1.27;;;17.00;99.90;;;;;;5011834;28;20478;-66
2021/05/23 04:42:30;;;;;;;1.97;1.77;;;15.70;99.90;;;;;;5011979;28;20424;-67
2021/05/23 04:45:18;;;;;;;1.53;1.13;;;14.50;99.90;;;;;;5011955;28;20782;-67
2021/05/23 04:47:47;;;;;;;1.30;1.10;;;13.60;99.90;;;;;;5011894;28;20753;-67
2021/05/23 04:50:15;;;;;;;1.60;1.17;;;12.90;99.90;;;;;;5011906;28;20872;-67
2021/05/23 04:52:43;;;;;;;1.67;1.50;;;12.50;99.90;;;;;;5011440;28;20550;-68
2021/05/23 04:55:11;;;;;;;2.80;1.60;;;12.60;99.90;;;;;;5011609;28;20416;-67
2021/05/23 04:57:39;;;;;;;1.47;1.23;;;12.90;99.90;;;;;;5011978;28;20400;-67
2021/05/23 05:00:09;;;;;;;2.50;2.03;;;13.20;99.90;;;;;;5011942;28;20835;-67
2021/05/23 05:02:38;;;;;;;2.07;1.40;;;13.50;99.90;;;;;;5011441;28;20811;-67
2021/05/23 05:05:08;;;;;;;2.80;1.30;;;13.60;99.90;;;;;;5011457;28;20909;-67
2021/05/23 05:07:36;;;;;;;1.80;1.33;;;13.50;99.90;;;;;;5011394;28;20981;-66
2021/05/23 05:10:05;;;;;;;1.20;1.03;;;13.50;99.90;;;;;;5011528;28;20405;-67
2021/05/23 05:12:32;;;;;;;1.63;1.30;;;13.40;99.90;;;;;;4993530;28;20516;-66
2021/05/23 05:15:00;;;;;;;2.80;1.63;;;13.20;99.90;;;;;;5011481;28;20869;-67
2021/05/23 05:17:28;;;;;;;1.93;1.20;;;13.10;99.90;;;;;;5011626;28;20409;-66
2021/05/23 05:19:56;;;;;;;2.60;1.60;;;13.20;99.90;;;;;;5011536;28;20963;-67
2021/05/23 05:22:24;;;;;;;1.30;1.07;;;13.20;99.90;;;;;;5011040;28;20468;-67
2021/05/23 05:24:52;;;;;;;1.80;1.37;;;13.00;99.90;;;;;;5011080;28;20416;-67
2021/05/23 05:27:21;;;;;;;2.27;1.63;;;12.70;99.90;;;;;;5011772;28;20388;-67
2021/05/23 05:29:49;;;;;;;1.47;1.10;;;12.70;99.90;;;;;;5011777;28;20437;-67
2021/05/23 05:32:16;;;;;;;2.17;1.20;;;12.80;99.90;;;;;;5014679;28;20889;-67
2021/05/23 05:34:44;;;;;;;1.57;1.47;;;13.10;99.90;;;;;;5018071;28;20467;-67
2021/05/23 05:37:11;;;;;;;1.40;1.10;;;13.40;99.90;;;;;;5018341;28;20413;-68
2021/05/23 05:39:41;;;;;;;1.50;1.27;;;13.50;99.90;;;;;;5018517;28;20489;-67
2021/05/23 05:42:08;;;;;;;2.10;1.40;;;13.70;99.90;;;;;;5017797;28;20413;-67
2021/05/23 05:44:36;;;;;;;2.20;2.00;;;13.60;99.90;;;;;;5016552;28;20959;-67
2021/05/23 05:47:04;;;;;;;1.97;1.40;;;13.50;99.90;;;;;;5017449;28;20818;-67
2021/05/23 05:49:31;;;;;;;1.40;1.10;;;13.30;99.90;;;;;;5017396;28;20421;-68
2021/05/23 05:51:59;;;;;;;1.33;1.00;;;13.20;99.90;;;;;;5016810;28;20430;-68
2021/05/23 05:54:27;;;;;;;1.37;1.00;;;13.00;99.90;;;;;;4998406;28;20484;-68
2021/05/23 05:56:57;;;;;;;3.40;1.70;;;13.00;99.90;;;;;;4997287;28;20404;-67
2021/05/23 05:59:43;;;;;;;1.83;1.30;;;12.80;99.90;;;;;;4993708;28;20800;-68
2021/05/23 06:02:10;;;;;;;5.30;1.80;;;12.70;99.90;;;;;;5011247;28;20470;-68
2021/05/23 06:04:38;;;;;;;4.10;1.40;;;12.70;99.90;;;;;;5011168;28;20412;-68
2021/05/23 06:07:06;;;;;;;1.67;1.27;;;12.60;99.90;;;;;;5011403;28;20419;-66
2021/05/23 06:09:34;;;;;;;1.63;1.30;;;12.50;99.90;;;;;;5011388;28;20417;-70
2021/05/23 06:12:03;;;;;;;1.50;1.10;;;12.60;99.90;;;;;;5010830;28;20936;-67
2021/05/23 06:14:31;;;;;;;1.43;1.20;;;12.60;99.90;;;;;;5011642;28;20388;-67
2021/05/23 06:16:59;;;;;;;3.27;1.60;;;12.50;99.90;;;;;;5011257;28;20425;-67
2021/05/23 06:19:26;;;;;;;1.77;1.20;;;12.50;99.90;;;;;;5013700;28;20405;-68
2021/05/23 06:21:54;;;;;;;1.30;1.10;;;12.50;99.90;;;;;;5014328;28;20475;-67
2021/05/23 06:24:22;;;;;;;1.23;0.90;;;12.50;99.90;;;;;;5014647;28;20930;-68
2021/05/23 06:26:49;;;;;;;1.20;1.10;;;12.40;99.90;;;;;;5014894;28;20748;-68
2021/05/23 06:29:18;;;;;;;1.80;1.30;;;12.20;99.90;;;;;;5014405;28;20436;-66
2021/05/23 06:31:46;;;;;;;1.50;1.27;;;12.10;99.90;;;;;;5013826;28;20464;-67
2021/05/23 06:34:13;;;;;;;3.10;1.30;;;11.90;99.90;;;;;;5014348;28;20419;-67
2021/05/23 06:36:41;;;;;;;1.23;1.13;;;11.90;99.90;;;;;;5014094;28;20399;-67
2021/05/23 06:39:09;;;;;;;1.80;1.47;;;11.80;99.90;;;;;;5014106;28;20456;-67
2021/05/23 06:41:37;;;;;;;1.17;1.00;;;11.60;99.90;;;;;;5013713;28;20432;-67
2021/05/23 06:44:05;;;;;;;2.17;1.10;;;11.60;99.90;;;;;;5013947;28;20441;-67
2021/05/23 06:46:34;;;;;;;1.30;1.00;;;11.60;99.90;;;;;;5014132;28;20519;-67
2021/05/23 06:49:02;;;;;;;1.57;1.10;;;11.60;99.90;;;;;;5014305;28;20384;-66
2021/05/23 06:51:30;;;;;;;1.43;1.13;;;11.50;99.90;;;;;;5013728;28;20437;-67
2021/05/23 06:53:57;;;;;;;1.97;1.77;;;11.40;99.90;;;;;;5013694;28;20469;-68
2021/05/23 06:56:25;;;;;;;1.20;1.00;;;11.30;99.90;;;;;;5013865;28;20949;-67
2021/05/23 06:58:52;;;;;;;1.37;1.00;;;11.20;99.90;;;;;;5013584;28;20431;-66
2021/05/23 07:01:20;;;;;;;1.83;1.27;;;11.20;99.90;;;;;;5013602;28;20434;-67
2021/05/23 07:03:49;;;;;;;1.40;1.10;;;11.30;99.90;;;;;;5013405;28;20441;-66
2021/05/23 07:06:17;;;;;;;1.90;1.17;;;11.60;99.90;;;;;;5013696;28;20490;-67
2021/05/23 07:08:45;;;;;;;1.20;1.03;;;11.80;99.90;;;;;;5013838;28;20380;-67
2021/05/23 07:11:13;;;;;;;1.50;1.07;;;12.20;99.90;;;;;;5013529;28;20772;-67
2021/05/23 07:13:40;;;;;;;2.00;1.20;;;12.40;99.90;;;;;;5013274;28;20481;-66
2021/05/23 07:16:08;;;;;;;1.40;1.13;;;12.70;99.90;;;;;;5013501;28;20504;-66
2021/05/23 07:18:36;;;;;;;1.67;1.33;;;13.30;99.90;;;;;;5013363;28;20821;-66
2021/05/23 07:21:05;;;;;;;1.17;1.07;;;13.60;99.90;;;;;;5013223;28;20416;-67
2021/05/23 07:23:32;;;;;;;2.83;1.23;;;13.80;99.90;;;;;;5013585;28;20973;-68
2021/05/23 07:26:00;;;;;;;1.50;1.20;;;13.90;99.90;;;;;;5013217;28;20416;-65
2021/05/23 07:28:28;;;;;;;1.10;1.00;;;14.10;99.90;;;;;;5012950;28;20447;-67
2021/05/23 07:30:56;;;;;;;1.17;0.97;;;14.40;99.90;;;;;;5013155;28;20593;-67
2021/05/23 07:33:23;;;;;;;1.70;1.40;;;14.70;99.90;;;;;;5012985;28;20842;-68
2021/05/23 07:35:51;;;;;;;1.97;0.97;;;14.80;99.90;;;;;;5012961;28;20380;-67
2021/05/23 07:38:20;;;;;;;1.50;1.27;;;14.60;99.90;;;;;;5013095;28;20427;-67
2021/05/23 07:40:48;;;;;;;1.10;0.90;;;14.90;99.90;;;;;;5012807;28;20437;-66
2021/05/23 07:43:16;;;;;;;2.53;1.47;;;15.00;99.90;;;;;;5013005;28;20445;-66
2021/05/23 07:45:43;;;;;;;2.90;1.57;;;15.20;99.90;;;;;;4995231;28;20411;-67
2021/05/23 07:48:12;;;;;;;1.17;1.07;;;15.50;99.90;;;;;;5013015;28;20392;-67
2021/05/23 07:50:39;;;;;;;2.40;0.90;;;15.60;99.90;;;;;;5012545;28;20913;-67
2021/05/23 07:53:07;;;;;;;4.20;1.80;;;15.80;99.90;;;;;;5012514;28;20476;-67
2021/05/23 07:55:36;;;;;;;2.17;1.60;;;16.00;99.90;;;;;;5012880;28;20417;-67
2021/05/23 07:58:04;;;;;;;1.97;1.00;;;15.90;99.90;;;;;;4995152;28;20408;-67
2021/05/23 08:00:32;;;;;;;1.00;0.70;;;15.50;99.90;;;;;;4994965;28;20429;-67
2021/05/23 08:02:59;;;;;;;1.20;0.80;;;15.20;99.90;;;;;;5012640;28;20979;-66
2021/05/23 08:05:27;;;;;;;2.23;1.40;;;15.10;99.90;;;;;;4994741;28;20947;-67
2021/05/23 08:07:56;;;;;;;2.43;1.40;;;14.90;99.90;;;;;;5012480;28;20431;-67
2021/05/23 08:10:24;;;;;;;1.67;1.20;;;14.70;99.90;;;;;;5012759;28;20412;-66
2021/05/23 08:12:52;;;;;;;2.60;1.10;;;14.60;99.90;;;;;;5012526;28;21002;-66
2021/05/23 08:15:20;;;;;;;1.30;1.10;;;14.80;99.90;;;;;;5012412;28;20429;-67
2021/05/23 08:17:52;;;;;;;1.50;0.83;;;14.50;99.90;;;;;;5012306;28;20427;-66
2021/05/23 08:20:21;;;;;;;1.60;1.40;;;14.70;99.90;;;;;;5012389;28;20915;-66
2021/05/23 08:22:48;;;;;;;2.43;1.77;;;14.60;99.90;;;;;;5012277;28;20451;-68
2021/05/23 08:25:16;;;;;;;2.07;1.40;;;14.90;99.90;;;;;;4994945;28;20425;-66
2021/05/23 08:27:44;;;;;;;2.80;1.20;;;15.60;99.90;;;;;;5012510;28;20479;-68
2021/05/23 08:30:15;;;;;;;1.70;1.03;;;16.10;99.90;;;;;;5025754;23;20500;-70
2021/05/23 08:32:42;;;;;;;1.77;1.00;;;16.20;99.90;;;;;;5011903;28;20999;-71
2021/05/23 08:35:11;;;;;;;2.03;1.30;;;15.80;99.90;;;;;;5012116;28;20384;-71
2021/05/23 08:37:39;;;;;;;1.90;1.53;;;15.40;99.90;;;;;;5012368;28;20399;-70
2021/05/23 08:40:08;;;;;;;1.50;1.40;;;15.00;99.90;;;;;;4994604;28;20470;-70
2021/05/23 08:42:37;;;;;;;1.20;1.07;;;15.00;99.90;;;;;;5011740;28;20426;-70
2021/05/23 08:45:06;;;;;;;2.80;1.30;;;15.20;99.90;;;;;;5011983;28;20432;-69
2021/05/23 08:47:44;;;;;;;2.50;0.90;;;15.20;99.90;;;;;;5012280;28;20429;-70
2021/05/23 08:50:15;;;;;;;4.40;1.53;;;14.90;99.90;;;;;;5012134;28;20431;-69
2021/05/23 08:52:43;;;;;;;1.30;1.10;;;14.30;99.90;;;;;;4994374;28;20448;-69
2021/05/23 08:55:14;;;;;;;1.43;1.13;;;14.20;99.90;;;;;;5011795;28;20924;-71
2021/05/23 08:57:42;;;;;;;1.27;0.73;;;14.70;99.90;;;;;;4994530;28;20416;-70
2021/05/23 09:00:11;;;;;;;1.70;1.10;;;15.00;99.90;;;;;;5011609;28;20900;-73
2021/05/23 09:02:51;;;;;;;1.10;1.00;;;15.20;99.90;;;;;;5011671;28;20522;-70
2021/05/23 09:05:27;;;;;;;1.73;1.30;;;15.40;99.90;;;;;;5012115;28;20899;-70
2021/05/23 09:07:54;;;;;;;1.30;0.90;;;16.20;99.90;;;;;;5011740;28;20398;-71
2021/05/23 09:10:26;;;;;;;2.10;1.17;;;16.60;99.90;;;;;;5011810;28;20421;-72
2021/05/23 09:12:54;;;;;;;1.93;1.10;;;16.60;99.90;;;;;;5011602;28;20450;-70
2021/05/23 09:15:24;;;;;;;1.50;0.97;;;16.40;99.90;;;;;;5011621;28;20421;-69
2021/05/23 09:18:08;;;;;;;1.00;0.77;;;16.50;99.90;;;;;;5011538;28;20880;-69
2021/05/23 09:20:38;;;;;;;1.43;1.30;;;16.00;99.90;;;;;;5011846;28;20482;-70
2021/05/23 09:23:11;;;;;;;1.70;1.40;;;15.40;99.90;;;;;;5011249;28;20471;-70
2021/05/23 09:25:39;;;;;;;1.70;1.53;;;14.80;99.90;;;;;;5011702;28;20933;-70
2021/05/23 09:28:08;;;;;;;1.60;1.37;;;14.70;99.90;;;;;;5011405;28;20392;-70
2021/05/23 09:30:39;;;;;;;2.40;0.90;;;14.60;99.90;;;;;;5011620;28;20404;-69
2021/05/23 09:33:11;;;;;;;1.77;1.00;;;14.70;99.90;;;;;;5011067;28;20446;-69
2021/05/23 09:35:43;;;;;;;1.30;1.00;;;15.10;99.90;;;;;;5011460;28;20840;-70
2021/05/23 09:38:13;;;;;;;1.93;1.23;;;15.40;99.90;;;;;;5011274;28;20444;-72
2021/05/23 09:40:43;;;;;;;1.70;1.43;;;15.90;99.90;;;;;;5011636;28;20747;-71
2021/05/23 09:43:18;;;;;;;1.77;1.60;;;16.10;99.90;;;;;;5011931;28;20416;-71
2021/05/23 09:45:47;;;;;;;1.27;1.13;;;16.00;99.90;;;;;;5011786;28;20391;-70
2021/05/23 09:48:20;;;;;;;1.37;1.23;;;15.50;99.90;;;;;;5011722;28;20399;-69
2021/05/23 09:50:50;;;;;;;3.30;1.60;;;15.50;99.90;;;;;;5011646;28;20767;-69
2021/05/23 09:53:25;;;;;;;1.57;1.27;;;15.60;99.90;;;;;;5014353;28;20448;-71
2021/05/23 09:55:58;;;;;;;1.20;0.80;;;15.90;99.90;;;;;;5015133;28;20401;-70
2021/05/23 09:58:29;;;;;;;1.40;1.00;;;16.60;99.90;;;;;;5016028;28;20528;-69
2021/05/23 10:00:57;;;;;;;1.57;0.77;;;16.70;99.90;;;;;;5016276;28;20804;-70
2021/05/23 10:03:28;;;;;;;1.83;0.80;;;17.20;99.90;;;;;;5017106;28;20407;-69
2021/05/23 10:05:57;;;;;;;1.67;0.80;;;17.70;99.90;;;;;;5016686;28;20391;-69
2021/05/23 10:08:25;;;;;;;0.90;0.70;;;17.90;99.90;;;;;;5017267;28;20977;-71
2021/05/23 10:10:54;;;;;;;1.00;0.70;;;17.20;99.90;;;;;;5018024;28;20400;-69
2021/05/23 10:13:23;;;;;;;1.00;0.70;;;16.50;99.90;;;;;;5017365;28;20537;-69
2021/05/23 10:15:51;;;;;;;0.90;0.70;;;16.70;99.90;;;;;;5000956;28;20520;-70
2021/05/23 10:18:21;;;;;;;1.10;0.60;;;16.90;99.90;;;;;;5019368;28;20419;-71
2021/05/23 10:20:54;;;;;;;1.13;0.77;;;16.90;99.90;;;;;;5019849;28;20423;-70
2021/05/23 10:23:25;;;;;;;0.93;0.67;;;16.80;99.90;;;;;;5019234;28;20684;-70
2021/05/23 10:25:57;;;;;;;1.33;1.17;;;17.20;99.90;;;;;;5018845;28;20412;-69
2021/05/23 10:28:26;;;;;;;1.30;0.80;;;17.20;99.90;;;;;;5015690;28;20893;-70
2021/05/23 10:31:12;;;;;;;1.43;0.80;;;17.40;99.90;;;;;;5014522;28;20448;-71
2021/05/23 10:33:49;;;;;;;1.23;0.93;;;17.80;99.90;;;;;;5014314;28;20534;-70
2021/05/23 10:36:28;;;;;;;1.87;1.27;;;17.70;99.90;;;;;;5014644;28;20391;-69
2021/05/23 10:38:57;;;;;;;1.80;1.37;;;17.60;99.90;;;;;;5015845;28;20468;-70
2021/05/23 10:41:24;;;;;;;4.40;2.50;;;17.60;99.90;;;;;;4998630;28;20428;-69
2021/05/23 10:44:00;;;;;;;1.00;0.80;;;17.80;99.90;;;;;;5015894;28;20437;-70
2021/05/23 10:46:29;;;;;;;1.87;1.53;;;17.60;99.90;;;;;;5016195;28;20409;-69
2021/05/23 10:48:58;;;;;;;1.30;1.13;;;17.20;99.90;;;;;;5014436;28;20433;-70
2021/05/23 10:51:28;;;;;;;2.10;1.27;;;17.50;99.90;;;;;;4996389;28;20460;-70
2021/05/23 10:53:56;;;;;;;1.23;1.00;;;17.70;99.90;;;;;;5014079;28;21003;-70
2021/05/23 10:56:26;;;;;;;1.30;0.93;;;17.70;99.90;;;;;;5013920;28;20400;-69
2021/05/23 10:58:59;;;;;;;1.20;1.00;;;17.40;99.90;;;;;;5014275;28;20402;-70
2021/05/23 11:01:41;;;;;;;5.00;1.40;;;16.90;99.90;;;;;;5014019;28;20396;-69
2021/05/23 11:04:11;;;;;;;1.30;1.03;;;16.70;99.90;;;;;;5013138;28;20416;-70
2021/05/23 11:06:40;;;;;;;1.50;1.23;;;16.50;99.90;;;;;;5013762;28;20406;-69
2021/05/23 11:09:11;;;;;;;1.93;1.10;;;16.50;99.90;;;;;;5013790;28;20395;-71
2021/05/23 11:11:39;;;;;;;2.10;1.00;;;16.30;99.90;;;;;;5013650;28;20820;-70
2021/05/23 11:14:15;;;;;;;1.37;1.20;;;16.10;99.90;;;;;;5013415;28;20530;-70
2021/05/23 11:17:01;;;;;;;1.30;1.13;;;15.80;99.90;;;;;;5013792;28;20400;-70
2021/05/23 11:19:31;;;;;;;2.30;1.30;;;15.50;99.90;;;;;;4996282;28;20487;-70
2021/05/23 11:22:00;;;;;;;1.40;1.00;;;15.50;99.90;;;;;;5013826;28;20384;-70
2021/05/23 11:24:29;;;;;;;1.97;1.30;;;15.50;99.90;;;;;;5013871;28;20428;-70
2021/05/23 11:27:10;;;;;;;2.10;1.53;;;15.50;99.90;;;;;;4996206;28;20419;-69
2021/05/23 11:29:38;;;;;;;2.00;1.43;;;15.70;99.90;;;;;;4995667;28;20419;-69
2021/05/23 11:32:12;;;;;;;1.77;1.53;;;16.40;99.90;;;;;;5013078;28;20436;-71
2021/05/23 11:34:40;;;;;;;2.07;1.77;;;16.70;99.90;;;;;;5013059;28;20423;-69
2021/05/23 11:37:09;;;;;;;1.40;1.00;;;16.80;99.90;;;;;;5013236;28;20400;-70
2021/05/23 11:39:36;;;;;;;1.20;1.00;;;17.10;99.90;;;;;;5013324;28;20412;-70
2021/05/23 11:42:05;;;;;;;1.70;1.00;;;17.40;99.90;;;;;;5013307;28;20437;-69
2021/05/23 11:44:38;;;;;;;1.90;1.17;;;17.30;99.90;;;;;;5013090;28;20930;-70
2021/05/23 11:47:06;;;;;;;1.43;1.13;;;17.10;99.90;;;;;;5013134;28;20417;-70
2021/05/23 11:49:35;;;;;;;1.90;1.00;;;16.80;99.90;;;;;;5013121;28;20774;-70
2021/05/23 11:52:05;;;;;;;1.37;1.00;;;16.60;99.90;;;;;;4994967;28;20944;-69
2021/05/23 11:54:33;;;;;;;1.60;1.40;;;16.60;99.90;;;;;;5012884;28;20522;-70
2021/05/23 11:57:04;;;;;;;1.87;1.13;;;16.70;99.90;;;;;;5012806;28;20429;-70
2021/05/23 11:59:32;;;;;;;1.60;1.17;;;16.80;99.90;;;;;;4995106;28;20853;-70
2021/05/23 12:02:00;;;;;;;1.30;0.80;;;17.00;99.90;;;;;;4995082;28;20412;-69
2021/05/23 12:04:28;;;;;;;1.73;1.10;;;17.40;99.90;;;;;;5012519;28;20463;-69
2021/05/23 12:06:57;;;;;;;1.93;0.80;;;17.80;99.90;;;;;;5013159;28;20988;-69
2021/05/23 12:09:28;;;;;;;1.00;0.70;;;17.80;99.90;;;;;;5012507;28;21019;-70
2021/05/23 12:11:58;;;;;;;1.20;1.03;;;17.70;99.90;;;;;;5012299;28;20403;-70
2021/05/23 12:14:30;;;;;;;1.70;1.03;;;17.40;99.90;;;;;;5012153;28;20464;-70
2021/05/23 12:17:04;;;;;;;0.97;0.83;;;17.20;99.90;;;;;;5011657;28;20410;-69
2021/05/23 12:19:52;;;;;;;1.43;0.80;;;16.70;99.90;;;;;;5012517;28;20399;-70
2021/05/23 12:22:21;;;;;;;1.20;1.10;;;16.90;99.90;;;;;;5012093;28;20456;-69
2021/05/23 12:24:51;;;;;;;1.30;0.90;;;16.90;99.90;;;;;;5012471;28;20487;-70
2021/05/23 12:27:31;;;;;;;1.17;0.90;;;16.90;99.90;;;;;;4994449;28;20415;-70
2021/05/23 12:30:08;;;;;;;1.20;0.70;;;16.90;99.90;;;;;;4996105;28;20464;-70
2021/05/23 12:32:44;;;;;;;1.20;0.90;;;17.00;99.90;;;;;;5011989;28;20787;-69
2021/05/23 12:35:14;;;;;;;1.30;0.83;;;17.40;99.90;;;;;;5011984;28;20449;-69
2021/05/23 12:37:49;;;;;;;1.00;0.70;;;17.90;99.90;;;;;;5012144;28;20400;-69
2021/05/23 12:40:19;;;;;;;1.80;1.67;;;18.20;99.90;;;;;;5012166;28;20414;-69
2021/05/23 12:42:47;;;;;;;1.50;0.80;;;18.10;99.90;;;;;;5014497;28;20440;-68
2021/05/23 12:45:16;;;;;;;1.27;0.90;;;17.80;99.90;;;;;;5013472;28;20403;-69
2021/05/23 12:47:50;;;;;;;1.70;1.23;;;18.00;99.90;;;;;;5013624;28;20384;-69
2021/05/23 12:50:37;;;;;;;1.13;0.80;;;18.10;99.90;;;;;;5014545;28;20780;-69
2021/05/23 12:53:05;;;;;;;1.70;1.00;;;18.40;99.90;;;;;;5011902;28;20548;-69
2021/05/23 12:55:39;;;;;;;1.77;1.27;;;18.70;99.90;;;;;;5012106;28;20855;-69
2021/05/23 12:58:08;;;;;;;1.40;1.00;;;19.00;99.90;;;;;;5012146;28;20508;-70
2021/05/23 13:00:48;;;;;;;0.80;0.50;;;18.90;99.90;;;;;;5011986;28;20429;-70
2021/05/23 13:03:18;;;;;;;0.90;0.70;;;18.70;99.90;;;;;;5011504;28;20426;-70